Latest Weather Observations for Camooweal

IDQ60801

Issued at 8:02 am EST Friday 24 November 2017 (issued every 30 minutes, with the page automatically refreshed every 10 minutes)

About weather observations | Map of weather stations | Latest weather observations for QLD | Other Formats
Station Details ID: 037010 Name: CAMOOWEAL TOWNSHIP Lat: -19.92 Lon: 138.12 Height: 231.2 m
Data from the previous 72 hours. | See also: Recent months at Camooweal
Date/Time
EST
Temp
°C
App
Temp
°C
Dew
Point
°C
Rel
Hum
%
Delta-T
°C
Wind Press
QNH
hPa
Press
MSL
hPa
Rain since
9am
mm
Dir  Spd
km/h
Gust
km/h
Spd
kts
Gust
kts
24/08:00am 22.4 24.1 21.7 96 0.5 S 15 26 8 14 1011.5 1009.8 13.2
24/07:30am 21.4 21.1 21.1 98 0.2 SSE 24 35 13 19 1012.7 1011.0 5.8
24/07:15am 21.7 19.9 20.3 92 0.9 SSE 30 48 16 26 1012.2 1010.5 1.4
24/07:00am 23.7 22.9 20.0 80 2.4 SSE 24 35 13 19 1012.3 1010.6 0.0
24/06:30am 25.7 31.0 23.0 85 1.8 CALM 0 0 0 0 1011.5 1009.8 0.0
24/06:00am 25.7 29.6 23.0 85 1.8 N 7 11 4 6 1010.8 1009.1 0.0
24/05:30am 25.7 29.3 23.0 85 1.8 N 9 15 5 8 1009.8 1008.2 0.0
24/05:00am 25.9 29.1 23.0 84 2.0 NNE 11 15 6 8 1009.7 1008.1 0.0
24/04:30am 26.1 29.6 22.8 82 2.3 NE 9 13 5 7 1009.5 1007.9 0.0
24/04:00am 26.2 29.3 22.9 82 2.3 ENE 11 15 6 8 1009.3 1007.7 0.0
24/03:30am 25.8 28.4 22.7 83 2.1 ESE 13 17 7 9 1009.1 1007.4 0.0
24/03:00am 26.1 29.7 22.4 80 2.5 NNE 7 11 4 6 1008.7 1007.0 0.0
24/02:30am 26.6 29.7 22.2 77 3.0 NNE 9 13 5 7 1008.6 1006.9 0.0
24/02:00am 27.1 29.6 21.8 73 3.6 NNE 11 15 6 8 1008.2 1006.5 0.0
24/01:30am 27.6 29.6 21.6 70 4.0 N 13 19 7 10 1008.1 1006.4 0.0
24/01:00am 28.2 29.3 20.5 63 5.1 N 15 22 8 12 1008.1 1006.4 0.0
24/12:30am 28.6 29.9 20.1 60 5.6 N 13 17 7 9 1007.9 1006.2 0.0
24/12:00am 29.2 30.1 20.1 58 6.0 N 15 20 8 11 1008.3 1006.6 0.0
 
Date/Time
EST
Temp
°C
App
Temp
°C
Dew
Point
°C
Rel
Hum
%
Delta-T
°C
Wind Press
QNH
hPa
Press
MSL
hPa
Rain since
9am
mm
Dir  Spd
km/h
Gust
km/h
Spd
kts
Gust
kts
23/11:30pm 29.1 30.0 20.0 58 6.0 N 15 20 8 11 1008.5 1006.8 0.0
23/11:00pm 29.0 30.2 19.9 58 6.0 NNE 13 17 7 9 1008.2 1006.5 0.0
23/10:30pm 28.9 30.4 19.8 58 6.0 NNE 11 13 6 7 1008.3 1006.6 0.0
23/10:00pm 29.5 31.3 19.5 55 6.6 N 9 13 5 7 1008.0 1006.3 0.0
23/09:30pm 29.9 31.6 19.3 53 7.0 NNE 9 11 5 6 1007.4 1005.7 0.0
23/09:00pm 30.5 32.1 19.2 51 7.4 NNE 9 13 5 7 1006.9 1005.2 0.0
23/08:30pm 31.1 31.7 18.5 47 8.2 N 13 17 7 9 1006.5 1004.8 0.0
23/08:00pm 31.9 32.5 17.8 43 9.1 N 11 15 6 8 1006.0 1004.4 0.0
23/07:30pm 32.8 33.6 17.4 39 9.9 N 9 13 5 7 1005.8 1004.2 0.0
23/07:00pm 33.5 34.1 15.9 34 11.2 NNW 7 11 4 6 1005.7 1004.1 0.0
23/06:30pm 35.0 36.7 15.3 30 12.4 CALM 0 0 0 0 1005.5 1003.9 0.0
23/06:00pm 35.1 36.7 16.9 34 11.8 NW 4 9 2 5 1005.3 1003.7 0.0
23/05:30pm 35.0 35.6 15.8 31 12.2 NW 7 11 4 6 1005.3 1003.7 0.0
23/05:00pm 35.6 36.4 16.4 32 12.4 NNW 7 13 4 7 1005.4 1003.8 0.0
23/04:30pm 34.7 35.2 16.5 33 11.7 SSW 9 19 5 10 1005.5 1003.9 0.0
23/04:00pm 33.7 34.6 16.6 36 11.0 NW 7 13 4 7 1005.7 1004.1 0.0
23/03:30pm 34.4 34.2 15.8 33 11.8 N 11 20 6 11 1005.9 1004.3 0.0
23/03:00pm 34.2 35.6 17.4 36 10.9 S 6 15 3 8 1006.3 1004.6 0.0
23/02:30pm 33.6 34.4 17.3 37 10.5 NNW 9 15 5 8 1006.7 1005.0 0.0
23/02:00pm 33.6 34.8 17.3 37 10.5 W 7 15 4 8 1006.9 1005.2 0.0
23/01:30pm 33.2 34.8 17.8 40 10.0 WNW 6 15 3 8 1007.3 1005.6 0.0
23/01:00pm 32.2 32.8 16.9 40 9.8 N 9 17 5 9 1007.8 1006.1 0.0
23/12:30pm 31.7 33.2 19.0 47 8.3 NNE 9 17 5 9 1008.2 1006.5 0.0
23/12:00pm 31.5 31.3 18.5 46 8.5 N 17 30 9 16 1008.3 1006.6 0.0
23/11:30am 30.5 31.2 18.9 50 7.6 N 13 20 7 11 1008.8 1007.1 0.0
23/11:00am 29.5 29.2 19.2 54 6.8 N 19 28 10 15 1009.1 1007.4 0.0
23/10:30am 29.0 29.1 18.4 52 6.9 NNE 15 20 8 11 1009.6 1008.0 0.0
23/10:00am 28.0 27.6 19.0 58 5.9 N 19 28 10 15 1009.6 1008.0 0.0
23/09:30am 27.0 27.6 18.6 60 5.4 N 13 20 7 11 1009.9 1008.3 0.0
23/09:00am 26.0 26.6 18.7 64 4.7 N 13 17 7 9 1009.8 1008.2 18.8
23/08:30am 25.3 26.5 19.0 68 4.1 N 11 17 6 9 1009.7 1008.1 18.8
23/08:00am 24.1 25.9 18.7 72 3.5 N 7 13 4 7 1009.6 1008.0 18.8
23/07:30am 23.5 25.1 19.2 77 2.8 NE 9 11 5 6 1009.2 1007.6 18.8
23/07:00am 22.5 25.0 20.2 87 1.5 ESE 7 9 4 5 1008.9 1007.2 18.8
23/06:30am 21.4 23.3 20.6 95 0.5 N 11 15 6 8 1007.9 1006.2 18.8
23/06:00am 21.1 23.5 20.1 94 0.6 E 7 9 4 5 1008.4 1006.7 18.8
23/05:30am 21.1 23.1 19.9 93 0.8 ENE 9 11 5 6 1008.5 1006.8 18.8
23/05:00am 21.0 24.0 20.0 94 0.6 SE 4 9 2 5 1008.5 1006.8 18.8
23/04:30am 21.1 24.4 19.9 93 0.8 S 2 6 1 3 1008.8 1007.1 18.8
23/04:00am 21.2 22.3 19.7 91 1.0 SSW 13 15 7 8 1009.2 1007.6 18.8
23/03:30am 21.2 23.9 19.5 90 1.1 NNW 4 9 2 5 1009.2 1007.6 18.8
23/03:00am 21.3 22.3 19.4 89 1.2 NE 13 19 7 10 1007.6 1005.9 18.8
23/02:30am 21.5 21.7 20.1 92 0.9 NNE 19 28 10 15 1007.4 1005.7 18.8
23/02:00am 21.8 22.5 20.4 92 0.9 NNE 17 30 9 16 1007.0 1005.3 18.8
23/01:30am 21.9 23.0 20.5 92 0.9 NNE 15 22 8 12 1007.3 1005.6 18.8
23/01:00am 22.0 22.3 20.3 90 1.1 NNE 19 26 10 14 1007.2 1005.5 18.8
23/12:30am 21.9 21.4 20.0 89 1.2 NE 22 30 12 16 1007.4 1005.7 18.8
23/12:00am 22.0 22.2 20.5 91 1.0 NNE 20 32 11 17 1007.9 1006.2 18.8
 
Date/Time
EST
Temp
°C
App
Temp
°C
Dew
Point
°C
Rel
Hum
%
Delta-T
°C
Wind Press
QNH
hPa
Press
MSL
hPa
Rain since
9am
mm
Dir  Spd
km/h
Gust
km/h
Spd
kts
Gust
kts
22/11:30pm 22.2 22.1 20.7 91 1.0 NNE 22 33 12 18 1007.7 1006.0 18.8
22/11:00pm 22.5 22.5 21.0 91 1.0 NE 22 33 12 18 1007.3 1005.6 18.6
22/10:30pm 22.5 22.9 20.6 89 1.2 NE 19 26 10 14 1007.6 1005.9 18.6
22/10:00pm 22.1 23.3 20.6 91 1.0 ENE 15 20 8 11 1007.0 1005.3 18.6
22/09:30pm 22.0 23.9 21.3 96 0.5 E 13 17 7 9 1007.8 1006.1 18.6
22/09:00pm 21.6 25.2 21.3 98 0.2 NW 4 9 2 5 1008.2 1006.5 18.0
22/08:30pm 21.4 23.2 21.2 99 0.1 SE 13 20 7 11 1008.4 1006.7 16.6
22/08:00pm 20.9 19.4 20.9 100 0.0 S 30 41 16 22 1007.6 1005.9 15.6
22/07:50pm 20.6 17.2 20.6 100 0.0 SSW 39 57 21 31 1007.4 1005.7 15.0
22/07:41pm 20.3 13.4 20.1 99 0.1 SSW 56 78 30 42 1007.7 1006.0 13.6
22/07:30pm 20.9 14.1 20.2 96 0.5 SW 56 87 30 47 1006.3 1004.6 5.0
22/07:29pm 20.9 14.7 19.9 94 0.6 SW 52 87 28 47 1006.3 1004.6 4.0
22/07:28pm 21.0 15.8 19.7 92 0.8 SSW 46 80 25 43 1006.2 1004.5 3.6
22/07:22pm 25.3 22.8 18.0 64 4.6 SE 28 63 15 34 1005.7 1004.1 0.2
22/07:00pm 29.9 25.5 15.6 42 8.9 E 33 56 18 30 1003.2 1001.5 0.2
22/06:59pm 30.7 27.1 16.3 42 9.1 E 30 48 16 26 1003.2 1001.5 0.2
22/06:56pm 31.1 29.0 16.3 41 9.3 E 22 39 12 21 1003.2 1001.5 0.2
22/06:30pm 34.5 35.7 17.3 36 11.1 N 7 11 4 6 1002.5 1000.8 0.2
22/06:00pm 34.5 35.5 17.7 37 11.0 NNW 9 17 5 9 1002.4 1000.7 0.2
22/05:30pm 34.8 34.9 17.5 35 11.2 NNW 13 17 7 9 1001.3 999.6 0.2
22/05:00pm 35.4 35.2 17.6 35 11.6 NNW 15 24 8 13 1001.7 1000.0 0.2
22/04:30pm 35.7 35.6 16.9 32 12.2 NNW 13 20 7 11 1002.1 1000.4 0.2
22/04:00pm 35.1 35.7 16.9 34 11.8 NNW 9 19 5 10 1002.9 1001.2 0.2
22/03:30pm 35.2 36.3 17.0 34 11.8 NNW 7 17 4 9 1003.8 1002.1 0.2
22/03:00pm 35.5 37.4 18.6 37 11.2 ENE 6 11 3 6 1004.5 1002.8 0.2
22/02:30pm 35.1 36.3 19.1 39 10.6 NNW 11 17 6 9 1005.0 1003.3 0.2
22/02:00pm 34.4 35.0 16.7 34 11.4 NW 9 15 5 8 1005.6 1004.0 0.2
22/01:30pm 33.1 34.7 19.2 43 9.2 N 9 17 5 9 1006.3 1004.6 0.2
22/01:00pm 33.5 35.8 20.6 46 8.7 NNE 9 20 5 11 1006.8 1005.1 0.2
22/12:30pm 32.7 35.5 20.9 49 8.0 NW 7 17 4 9 1007.2 1005.5 0.2
22/12:00pm 31.6 34.4 21.5 55 6.9 NNW 9 17 5 9 1007.7 1006.0 0.2
22/11:30am 30.8 32.9 21.0 56 6.6 NW 11 19 6 10 1008.2 1006.5 0.2
22/11:00am 30.1 32.6 21.7 60 5.7 NNW 11 20 6 11 1008.6 1006.9 0.2
22/10:30am 29.2 30.5 20.9 61 5.6 N 15 28 8 15 1008.9 1007.2 0.2
22/10:00am 29.1 31.0 21.3 62 5.3 NNW 13 19 7 10 1009.2 1007.6 0.2
22/09:30am 27.8 29.5 20.9 66 4.6 NNW 13 20 7 11 1009.3 1007.7 0.2
22/09:00am 26.8 28.0 20.6 69 4.1 N 15 20 8 11 1009.1 1007.4 19.4
22/08:30am 26.0 27.8 20.3 71 3.8 N 11 17 6 9 1009.3 1007.7 19.4
22/08:00am 24.9 27.5 20.4 76 3.0 NE 7 11 4 6 1009.3 1007.7 19.4
22/07:30am 23.9 25.8 19.8 78 2.7 ENE 9 11 5 6 1009.2 1007.6 19.4
22/07:00am 23.1 25.3 20.4 85 1.8 E 9 11 5 6 1008.9 1007.2 19.4
22/06:30am 21.9 24.5 20.0 89 1.2 E 6 7 3 4 1008.2 1006.5 19.4
22/06:00am 21.5 24.9 19.4 88 1.3 CALM 0 0 0 0 1008.2 1006.5 19.4
22/05:30am 21.8 24.1 19.5 87 1.5 NE 6 9 3 5 1007.9 1006.2 19.4
22/05:00am 22.1 23.9 19.6 86 1.6 NE 9 13 5 7 1007.4 1005.7 19.4
22/04:30am 22.4 23.8 19.6 84 1.8 ENE 11 13 6 7 1007.4 1005.7 19.4
22/04:00am 22.8 23.9 19.6 82 2.1 NE 13 19 7 10 1007.2 1005.5 19.4
22/03:30am 23.1 24.4 20.1 83 2.0 NNE 13 19 7 10 1007.2 1005.5 19.4
22/03:00am 23.2 24.7 20.5 85 1.8 NNE 13 22 7 12 1007.6 1005.9 19.4
22/02:30am 23.4 24.0 20.3 83 2.0 NNE 17 20 9 11 1006.9 1005.2 19.4
22/02:00am 23.7 24.3 20.2 81 2.3 NE 17 22 9 12 1007.6 1005.9 19.4
22/01:30am 23.5 24.7 19.8 80 2.4 NE 13 17 7 9 1008.1 1006.4 19.4
22/01:00am 23.6 24.1 19.3 77 2.8 NE 15 20 8 11 1008.7 1007.0 19.4
22/12:30am 23.8 23.3 19.1 75 3.0 NE 20 30 11 16 1008.3 1006.6 19.4
22/12:00am 23.3 22.8 19.9 81 2.2 ENE 22 30 12 16 1008.9 1007.2 19.4
 
Date/Time
EST
Temp
°C
App
Temp
°C
Dew
Point
°C
Rel
Hum
%
Delta-T
°C
Wind Press
QNH
hPa
Press
MSL
hPa
Rain since
9am
mm
Dir  Spd
km/h
Gust
km/h
Spd
kts
Gust
kts
21/11:30pm 23.1 23.0 19.9 82 2.1 NE 20 35 11 19 1008.4 1006.7 19.4
21/11:00pm 23.2 24.2 19.4 79 2.5 NNE 13 17 7 9 1007.4 1005.7 19.4
21/10:30pm 23.2 23.4 19.4 79 2.4 N 17 22 9 12 1006.8 1005.1 19.4
21/10:00pm 23.1 23.7 19.5 80 2.3 NNW 15 24 8 13 1006.9 1005.2 19.4
21/09:30pm 23.5 23.9 19.0 76 2.9 NNW 15 20 8 11 1007.1 1005.4 19.4
21/09:00pm 23.4 24.0 20.2 82 2.1 N 17 28 9 15 1006.6 1004.9 19.4
21/08:30pm 23.9 25.0 19.6 77 2.8 NE 13 19 7 10 1007.0 1005.3 19.4
21/08:00pm 23.6 24.5 20.1 81 2.3 ENE 15 30 8 16 1006.6 1004.9 19.4
21/07:30pm 23.7 24.3 20.2 81 2.3 N 17 22 9 12 1005.3 1003.7 19.4
21/07:00pm 23.3 25.9 20.4 84 1.9 NNE 7 13 4 7 1004.9 1003.2 19.4
21/06:30pm 23.0 22.5 19.0 78 2.6 W 20 30 11 16 1006.8 1005.1 19.0
21/06:00pm 23.4 22.0 18.7 75 3.0 W 24 35 13 19 1006.6 1004.9 18.4
21/05:30pm 24.3 24.3 18.2 68 3.9 NW 15 22 8 12 1006.5 1004.8 18.2
21/05:07pm 24.6 25.1 20.1 76 2.9 SSE 17 48 9 26 1006.2 1004.5 18.2
21/05:00pm 24.3 26.5 21.2 83 2.1 E 11 13 6 7 1004.3 1002.6 18.2
21/04:30pm 24.4 25.0 20.3 78 2.7 NW 17 33 9 18 1005.6 1004.0 17.8
21/04:00pm 22.9 24.0 21.9 94 0.7 NW 19 33 10 18 1005.5 1003.9 15.2
21/03:41pm 24.5 25.9 22.8 90 1.2 NNE 20 26 11 14 1005.0 1003.3 15.0
21/03:30pm 24.1 22.1 22.5 91 1.1 S 37 56 20 30 1007.1 1005.4 13.4
21/03:28pm 21.7 18.0 20.7 94 0.7 SSW 41 65 22 35 1007.4 1005.7 12.2
21/03:25pm 21.8 16.5 20.3 91 1.0 SSW 48 65 26 35 1007.6 1005.9 10.8
21/03:20pm 20.5 13.4 19.7 95 0.5 SSW 56 80 30 43 1007.6 1005.9 7.6
21/03:04pm 22.4 19.2 16.4 69 3.7 SSW 28 72 15 39 1005.8 1004.2 0.4
21/03:00pm 28.3 26.5 15.6 46 7.9 N 19 48 10 26 1005.8 1004.2 0.0
21/02:30pm 35.8 34.6 17.0 32 12.2 N 19 32 10 17 1004.3 1002.6 0.0
21/02:00pm 36.2 36.1 15.9 30 13.0 NNW 11 20 6 11 1005.5 1003.9 0.0
21/01:30pm 36.3 36.4 17.4 32 12.3 NNW 13 20 7 11 1006.5 1004.8 0.0
21/01:00pm 36.4 35.6 17.0 31 12.6 N 17 32 9 17 1007.1 1005.4 0.0
21/12:30pm 35.8 35.7 17.0 32 12.2 NW 13 22 7 12 1007.7 1006.0 0.0
21/12:00pm 35.4 34.4 17.6 35 11.6 NNW 19 32 10 17 1008.3 1006.6 0.0
21/11:30am 35.1 34.9 18.6 37 10.9 NNW 17 30 9 16 1008.7 1007.0 0.0
21/11:00am 34.2 34.3 18.3 39 10.4 NNW 15 28 8 15 1009.1 1007.4 0.0
21/10:30am 33.3 33.3 19.0 42 9.4 NW 17 26 9 14 1009.3 1007.7 0.0
21/10:00am 32.0 31.6 18.9 45 8.6 NNW 19 32 10 17 1009.6 1008.0 0.0
21/09:30am 31.4 31.6 19.4 49 7.9 NNW 17 30 9 16 1009.7 1008.1 0.0
21/09:00am 30.7 30.5 19.4 51 7.5 NNW 19 32 10 17 1009.9 1008.3 0.0
21/08:30am 29.5 29.2 19.2 54 6.7 N 19 30 10 16 1009.6 1008.0 0.0

Other Formats:

Comma delimited format used in spreadsheet applications
http://www.bom.gov.au/fwo/IDQ60801/IDQ60801.94255.axf

JavaScript Object Notation format (JSON) in row-major order
http://www.bom.gov.au/fwo/IDQ60801/IDQ60801.94255.json